CPA521 RJAA-VHHH
Flight info
| Callsign | CPA521 |
|---|---|
| Flight time | 4h 22m |
| Altitude | 36000 |
| Route | PIGOK2 PIGOK Y50 IGMON A1 ELATO V522 ABBEY ABBEY4A |
| Aircraft | B77W/H-SDE1E2E3FGHIJ2J3J4J5M1RWXY/LB1D1 |
Departure
| Time | 2026-05-05 08:48 |
|---|---|
| Airport | Narita International Airport (RJAA) |
Arrival
| Time | 2026-05-05 13:10 |
|---|---|
| Airport | Hong Kong International Airport (VHHH) |
| Time | Latitude | Longitude | Altitude | Speed | Heading |
|---|---|---|---|---|---|
| 2026-05-05 08:21 | 35.77317 | 140.39418 | 149 ft | 0 kts | 329° |
| 2026-05-05 08:28 | 35.77303 | 140.39429 | 149 ft | 4 kts | 325° |
| 2026-05-05 08:28 | 35.77275 | 140.39457 | 149 ft | 4 kts | 311° |
| 2026-05-05 08:28 | 35.77264 | 140.39475 | 149 ft | 4 kts | 297° |
| 2026-05-05 08:29 | 35.77258 | 140.39502 | 149 ft | 4 kts | 241° |
| 2026-05-05 08:29 | 35.77262 | 140.39509 | 149 ft | 0 kts | 204° |
| 2026-05-05 08:35 | 35.77246 | 140.39500 | 149 ft | 9 kts | 204° |
| 2026-05-05 08:35 | 35.77187 | 140.39468 | 149 ft | 9 kts | 204° |
| 2026-05-05 08:35 | 35.77131 | 140.39437 | 149 ft | 9 kts | 204° |
| 2026-05-05 08:35 | 35.77086 | 140.39418 | 149 ft | 0 kts | 195° |
| 2026-05-05 08:36 | 35.77082 | 140.39418 | 149 ft | 3 kts | 184° |
| 2026-05-05 08:36 | 35.77039 | 140.39432 | 149 ft | 7 kts | 158° |
| 2026-05-05 08:36 | 35.76998 | 140.39464 | 149 ft | 7 kts | 144° |
| 2026-05-05 08:36 | 35.76955 | 140.39495 | 149 ft | 7 kts | 152° |
| 2026-05-05 08:37 | 35.76915 | 140.39544 | 149 ft | 9 kts | 110° |
| 2026-05-05 08:37 | 35.76918 | 140.39626 | 149 ft | 10 kts | 85° |
| 2026-05-05 08:37 | 35.76904 | 140.39706 | 149 ft | 10 kts | 114° |
| 2026-05-05 08:37 | 35.76861 | 140.39767 | 149 ft | 11 kts | 152° |
| 2026-05-05 08:38 | 35.76782 | 140.39762 | 149 ft | 12 kts | 208° |
| 2026-05-05 08:38 | 35.76717 | 140.39698 | 149 ft | 12 kts | 223° |
| 2026-05-05 08:38 | 35.76648 | 140.39642 | 149 ft | 12 kts | 207° |
| 2026-05-05 08:38 | 35.76572 | 140.39598 | 149 ft | 12 kts | 203° |
| 2026-05-05 08:39 | 35.76484 | 140.39551 | 149 ft | 18 kts | 204° |
| 2026-05-05 08:39 | 35.76342 | 140.39472 | 149 ft | 26 kts | 205° |
| 2026-05-05 08:39 | 35.76159 | 140.39370 | 149 ft | 30 kts | 204° |
| 2026-05-05 08:39 | 35.75988 | 140.39279 | 149 ft | 25 kts | 205° |
| 2026-05-05 08:40 | 35.75838 | 140.39185 | 148 ft | 21 kts | 219° |
| 2026-05-05 08:40 | 35.75763 | 140.39042 | 149 ft | 20 kts | 240° |
| 2026-05-05 08:40 | 35.75693 | 140.38895 | 149 ft | 20 kts | 239° |
| 2026-05-05 08:40 | 35.75626 | 140.38753 | 149 ft | 18 kts | 240° |
| 2026-05-05 08:41 | 35.75597 | 140.38609 | 149 ft | 16 kts | 275° |
| 2026-05-05 08:41 | 35.75658 | 140.38502 | 149 ft | 16 kts | 324° |
| 2026-05-05 08:41 | 35.75759 | 140.38428 | 149 ft | 17 kts | 330° |
| 2026-05-05 08:41 | 35.75843 | 140.38350 | 149 ft | 13 kts | 295° |
| 2026-05-05 08:42 | 35.75859 | 140.38243 | 149 ft | 14 kts | 302° |
| 2026-05-05 08:42 | 35.75955 | 140.38158 | 149 ft | 21 kts | 329° |
| 2026-05-05 08:42 | 35.76093 | 140.38058 | 149 ft | 23 kts | 329° |
| 2026-05-05 08:42 | 35.76233 | 140.37958 | 148 ft | 23 kts | 329° |
| 2026-05-05 08:43 | 35.76371 | 140.37858 | 148 ft | 22 kts | 329° |
| 2026-05-05 08:43 | 35.76501 | 140.37764 | 148 ft | 22 kts | 329° |
| 2026-05-05 08:43 | 35.76630 | 140.37671 | 148 ft | 22 kts | 329° |
| 2026-05-05 08:43 | 35.76761 | 140.37575 | 148 ft | 22 kts | 329° |
| 2026-05-05 08:44 | 35.76890 | 140.37483 | 148 ft | 22 kts | 329° |
| 2026-05-05 08:44 | 35.77020 | 140.37388 | 148 ft | 22 kts | 329° |
| 2026-05-05 08:44 | 35.77152 | 140.37293 | 148 ft | 22 kts | 329° |
| 2026-05-05 08:44 | 35.77278 | 140.37202 | 148 ft | 21 kts | 329° |
| 2026-05-05 08:45 | 35.77406 | 140.37111 | 148 ft | 21 kts | 330° |
| 2026-05-05 08:45 | 35.77488 | 140.37016 | 148 ft | 12 kts | 283° |
| 2026-05-05 08:45 | 35.77478 | 140.36952 | 148 ft | 7 kts | 244° |
| 2026-05-05 08:45 | 35.77453 | 140.36896 | 148 ft | 7 kts | 238° |
| 2026-05-05 08:46 | 35.77414 | 140.36864 | 148 ft | 7 kts | 184° |
| 2026-05-05 08:46 | 35.77386 | 140.36870 | 148 ft | 3 kts | 158° |
| 2026-05-05 08:46 | 35.77364 | 140.36885 | 147 ft | 4 kts | 150° |
| 2026-05-05 08:46 | 35.77349 | 140.36896 | 147 ft | 11 kts | 149° |
| 2026-05-05 08:47 | 35.77146 | 140.37043 | 147 ft | 66 kts | 149° |
| 2026-05-05 08:47 | 35.76542 | 140.37476 | 150 ft | 133 kts | 149° |
| 2026-05-05 08:47 | 35.75590 | 140.38175 | 212 ft | 177 kts | 148° |
| 2026-05-05 08:47 | 35.74525 | 140.38952 | 721 ft | 184 kts | 150° |
| 2026-05-05 08:48 | 35.73383 | 140.39767 | 1294 ft | 191 kts | 152° |
| 2026-05-05 08:48 | 35.72225 | 140.40589 | 1800 ft | 202 kts | 151° |
| 2026-05-05 08:48 | 35.70928 | 140.41511 | 2136 ft | 223 kts | 150° |
| 2026-05-05 08:48 | 35.69543 | 140.42505 | 2725 ft | 236 kts | 150° |
| 2026-05-05 08:49 | 35.68079 | 140.43559 | 3311 ft | 249 kts | 151° |
| 2026-05-05 08:49 | 35.66555 | 140.44656 | 3998 ft | 259 kts | 151° |
| 2026-05-05 08:49 | 35.64984 | 140.45791 | 4783 ft | 264 kts | 151° |
| 2026-05-05 08:49 | 35.63390 | 140.46943 | 5451 ft | 272 kts | 151° |
| 2026-05-05 08:50 | 35.61725 | 140.48144 | 6135 ft | 280 kts | 151° |
| 2026-05-05 08:50 | 35.60036 | 140.49361 | 6852 ft | 285 kts | 150° |
| 2026-05-05 08:50 | 35.58323 | 140.50602 | 7490 ft | 291 kts | 150° |
| 2026-05-05 08:50 | 35.56555 | 140.51878 | 8148 ft | 297 kts | 151° |
| 2026-05-05 08:51 | 35.54791 | 140.53144 | 9056 ft | 292 kts | 151° |
| 2026-05-05 08:51 | 35.53023 | 140.54412 | 9765 ft | 297 kts | 152° |
| 2026-05-05 08:51 | 35.51108 | 140.55300 | 10311 ft | 294 kts | 179° |
| 2026-05-05 08:51 | 35.49123 | 140.54885 | 10830 ft | 290 kts | 211° |
| 2026-05-05 08:52 | 35.47402 | 140.53597 | 11363 ft | 291 kts | 214° |
| 2026-05-05 08:52 | 35.45575 | 140.52315 | 11535 ft | 315 kts | 211° |
| 2026-05-05 08:52 | 35.43580 | 140.51004 | 11712 ft | 338 kts | 210° |
| 2026-05-05 08:52 | 35.41451 | 140.49628 | 11895 ft | 360 kts | 210° |
| 2026-05-05 08:53 | 35.39181 | 140.48166 | 12205 ft | 376 kts | 210° |
| 2026-05-05 08:53 | 35.36967 | 140.46439 | 12562 ft | 378 kts | 226° |
| 2026-05-05 08:53 | 35.35444 | 140.43830 | 13131 ft | 380 kts | 247° |
| 2026-05-05 08:53 | 35.34697 | 140.40739 | 13903 ft | 378 kts | 263° |
| 2026-05-05 08:54 | 35.34453 | 140.37535 | 14549 ft | 380 kts | 266° |
| 2026-05-05 08:54 | 35.34260 | 140.34293 | 15231 ft | 384 kts | 267° |
| 2026-05-05 08:54 | 35.34071 | 140.31013 | 15982 ft | 386 kts | 267° |
| 2026-05-05 08:54 | 35.33874 | 140.27726 | 16726 ft | 388 kts | 267° |
| 2026-05-05 08:55 | 35.33665 | 140.24417 | 17457 ft | 391 kts | 267° |
| 2026-05-05 08:55 | 35.33445 | 140.21083 | 18168 ft | 395 kts | 266° |
| 2026-05-05 08:55 | 35.33216 | 140.17704 | 18825 ft | 398 kts | 266° |
| 2026-05-05 08:55 | 35.32983 | 140.14316 | 19505 ft | 399 kts | 266° |
| 2026-05-05 08:56 | 35.32751 | 140.10973 | 20283 ft | 398 kts | 266° |
| 2026-05-05 08:56 | 35.32515 | 140.07603 | 21103 ft | 397 kts | 265° |
| 2026-05-05 08:56 | 35.32281 | 140.04250 | 21876 ft | 397 kts | 265° |
| 2026-05-05 08:56 | 35.32043 | 140.00874 | 22608 ft | 397 kts | 265° |
| 2026-05-05 08:57 | 35.31803 | 139.97509 | 23302 ft | 398 kts | 264° |
| 2026-05-05 08:57 | 35.31541 | 139.94117 | 23940 ft | 400 kts | 264° |
| 2026-05-05 08:57 | 35.31146 | 139.90744 | 24525 ft | 400 kts | 259° |
| 2026-05-05 08:57 | 35.30597 | 139.87415 | 25163 ft | 398 kts | 258° |
| 2026-05-05 08:58 | 35.30046 | 139.84082 | 25833 ft | 397 kts | 258° |
| 2026-05-05 08:58 | 35.29509 | 139.80821 | 26490 ft | 396 kts | 258° |
| 2026-05-05 08:58 | 35.28968 | 139.77525 | 27146 ft | 394 kts | 258° |
| 2026-05-05 08:58 | 35.28430 | 139.74234 | 27757 ft | 393 kts | 258° |
| 2026-05-05 08:59 | 35.27894 | 139.70951 | 28282 ft | 394 kts | 258° |
| 2026-05-05 08:59 | 35.27355 | 139.67652 | 28803 ft | 395 kts | 258° |
| 2026-05-05 08:59 | 35.26814 | 139.64343 | 29320 ft | 395 kts | 257° |
| 2026-05-05 08:59 | 35.26273 | 139.61042 | 29851 ft | 395 kts | 257° |
| 2026-05-05 09:00 | 35.25740 | 139.57789 | 30328 ft | 394 kts | 257° |
| 2026-05-05 09:00 | 35.25191 | 139.54449 | 30677 ft | 395 kts | 257° |
| 2026-05-05 09:00 | 35.24656 | 139.51195 | 30976 ft | 396 kts | 257° |
| 2026-05-05 09:00 | 35.24103 | 139.47837 | 31206 ft | 398 kts | 257° |
| 2026-05-05 09:01 | 35.23554 | 139.44514 | 31462 ft | 399 kts | 257° |
| 2026-05-05 09:01 | 35.23011 | 139.41231 | 31781 ft | 398 kts | 257° |
| 2026-05-05 09:01 | 35.22462 | 139.37917 | 32209 ft | 395 kts | 257° |
| 2026-05-05 09:01 | 35.21920 | 139.34650 | 32681 ft | 390 kts | 257° |
| 2026-05-05 09:02 | 35.21383 | 139.31414 | 33112 ft | 387 kts | 257° |
| 2026-05-05 09:02 | 35.20846 | 139.28193 | 33495 ft | 384 kts | 257° |
| 2026-05-05 09:02 | 35.20315 | 139.25010 | 33845 ft | 380 kts | 257° |
| 2026-05-05 09:02 | 35.19787 | 139.21854 | 34058 ft | 378 kts | 257° |
| 2026-05-05 09:03 | 35.19258 | 139.18695 | 34190 ft | 378 kts | 257° |
| 2026-05-05 09:03 | 35.18201 | 139.12395 | 34307 ft | 378 kts | 257° |
| 2026-05-05 09:04 | 35.17140 | 139.06086 | 34384 ft | 379 kts | 257° |
| 2026-05-05 09:04 | 35.16073 | 138.99781 | 34566 ft | 379 kts | 257° |
| 2026-05-05 09:04 | 35.15586 | 138.96604 | 34713 ft | 379 kts | 259° |
| 2026-05-05 09:05 | 35.15271 | 138.93465 | 34894 ft | 378 kts | 262° |
| 2026-05-05 09:05 | 35.14948 | 138.87036 | 35037 ft | 379 kts | 263° |
| 2026-05-05 09:06 | 35.14629 | 138.80591 | 35102 ft | 381 kts | 263° |
| 2026-05-05 09:06 | 35.14467 | 138.77366 | 35205 ft | 380 kts | 263° |
| 2026-05-05 09:06 | 35.14303 | 138.74138 | 35301 ft | 380 kts | 263° |
| 2026-05-05 09:07 | 35.13970 | 138.67675 | 35470 ft | 381 kts | 263° |
| 2026-05-05 09:07 | 35.13802 | 138.64457 | 35618 ft | 380 kts | 263° |
| 2026-05-05 09:07 | 35.13634 | 138.61229 | 35714 ft | 381 kts | 263° |
| 2026-05-05 09:07 | 35.13465 | 138.58036 | 35843 ft | 380 kts | 263° |
| 2026-05-05 09:08 | 35.13295 | 138.54816 | 35948 ft | 381 kts | 263° |
| 2026-05-05 09:08 | 35.12952 | 138.48347 | 36133 ft | 381 kts | 263° |
| 2026-05-05 09:09 | 35.12607 | 138.41903 | 36209 ft | 377 kts | 263° |
| 2026-05-05 09:09 | 35.12261 | 138.35557 | 36230 ft | 379 kts | 263° |
| 2026-05-05 09:10 | 35.11907 | 138.29108 | 36253 ft | 380 kts | 263° |
| 2026-05-05 09:10 | 35.11555 | 138.22677 | 36236 ft | 380 kts | 263° |
| 2026-05-05 09:11 | 35.11195 | 138.16241 | 36273 ft | 379 kts | 262° |
| 2026-05-05 09:11 | 35.10830 | 138.09789 | 36229 ft | 381 kts | 262° |
| 2026-05-05 09:12 | 35.10456 | 138.03327 | 36261 ft | 381 kts | 262° |
| 2026-05-05 09:12 | 35.10142 | 137.97966 | 36246 ft | 381 kts | 262° |
| 2026-05-05 09:13 | 35.09760 | 137.91507 | 36284 ft | 381 kts | 262° |
| 2026-05-05 09:13 | 35.09313 | 137.83978 | 36242 ft | 382 kts | 262° |
| 2026-05-05 09:14 | 35.08991 | 137.78611 | 36222 ft | 381 kts | 262° |
| 2026-05-05 09:14 | 35.08534 | 137.71076 | 36229 ft | 380 kts | 262° |
| 2026-05-05 09:15 | 35.07848 | 137.65795 | 36239 ft | 378 kts | 256° |
| 2026-05-05 09:15 | 35.06495 | 137.59598 | 36232 ft | 377 kts | 251° |
| 2026-05-05 09:16 | 35.04749 | 137.53603 | 36229 ft | 378 kts | 250° |
| 2026-05-05 09:16 | 35.02991 | 137.47560 | 36226 ft | 379 kts | 251° |
| 2026-05-05 09:17 | 35.01249 | 137.41499 | 36224 ft | 379 kts | 251° |
| 2026-05-05 09:17 | 34.99516 | 137.35432 | 36226 ft | 378 kts | 251° |
| 2026-05-05 09:18 | 34.97779 | 137.29362 | 36223 ft | 379 kts | 251° |
| 2026-05-05 09:18 | 34.96038 | 137.23297 | 36220 ft | 379 kts | 251° |
| 2026-05-05 09:19 | 34.94290 | 137.17225 | 36227 ft | 379 kts | 251° |
| 2026-05-05 09:19 | 34.92541 | 137.11160 | 36222 ft | 379 kts | 251° |
| 2026-05-05 09:20 | 34.90799 | 137.05133 | 36251 ft | 379 kts | 251° |
| 2026-05-05 09:20 | 34.89052 | 136.99099 | 36234 ft | 380 kts | 251° |
| 2026-05-05 09:21 | 34.87292 | 136.93032 | 36223 ft | 380 kts | 250° |
| 2026-05-05 09:21 | 34.85454 | 136.86982 | 36213 ft | 381 kts | 248° |
| 2026-05-05 09:22 | 34.83215 | 136.81129 | 36211 ft | 381 kts | 246° |
| 2026-05-05 09:22 | 34.80962 | 136.75287 | 36212 ft | 381 kts | 246° |
| 2026-05-05 09:23 | 34.78721 | 136.69468 | 36213 ft | 382 kts | 246° |
| 2026-05-05 09:23 | 34.76467 | 136.63619 | 36215 ft | 382 kts | 246° |
| 2026-05-05 09:24 | 34.74206 | 136.57759 | 36219 ft | 382 kts | 246° |
| 2026-05-05 09:24 | 34.71943 | 136.51906 | 36209 ft | 382 kts | 246° |
| 2026-05-05 09:25 | 34.69689 | 136.46085 | 36209 ft | 383 kts | 246° |
| 2026-05-05 09:25 | 34.67420 | 136.40235 | 36207 ft | 383 kts | 246° |
| 2026-05-05 09:26 | 34.65143 | 136.34374 | 36202 ft | 383 kts | 246° |
| 2026-05-05 09:26 | 34.62866 | 136.28525 | 36196 ft | 383 kts | 246° |
| 2026-05-05 09:27 | 34.60587 | 136.22679 | 36212 ft | 383 kts | 246° |
| 2026-05-05 09:27 | 34.58291 | 136.16826 | 36186 ft | 384 kts | 245° |
| 2026-05-05 09:28 | 34.55862 | 136.11108 | 36188 ft | 384 kts | 244° |
| 2026-05-05 09:28 | 34.53374 | 136.05377 | 36204 ft | 383 kts | 244° |
| 2026-05-05 09:29 | 34.50888 | 135.99632 | 36201 ft | 385 kts | 244° |
| 2026-05-05 09:29 | 34.48415 | 135.93892 | 36171 ft | 385 kts | 244° |
| 2026-05-05 09:30 | 34.45941 | 135.88150 | 36180 ft | 385 kts | 244° |
| 2026-05-05 09:30 | 34.43451 | 135.82375 | 36180 ft | 385 kts | 244° |
| 2026-05-05 09:31 | 34.40970 | 135.76636 | 36148 ft | 385 kts | 244° |
| 2026-05-05 09:31 | 34.38494 | 135.70915 | 36165 ft | 385 kts | 244° |
| 2026-05-05 09:32 | 34.36010 | 135.65183 | 36164 ft | 384 kts | 244° |
| 2026-05-05 09:32 | 34.33524 | 135.59460 | 36172 ft | 384 kts | 244° |
| 2026-05-05 09:33 | 34.31036 | 135.53739 | 36169 ft | 384 kts | 243° |
| 2026-05-05 09:33 | 34.28547 | 135.48028 | 36164 ft | 384 kts | 243° |
| 2026-05-05 09:34 | 34.26064 | 135.42337 | 36167 ft | 385 kts | 243° |
| 2026-05-05 09:34 | 34.23559 | 135.36607 | 36161 ft | 385 kts | 243° |
| 2026-05-05 09:35 | 34.21068 | 135.30917 | 36161 ft | 386 kts | 243° |
| 2026-05-05 09:35 | 34.17297 | 135.22323 | 36176 ft | 386 kts | 243° |
| 2026-05-05 09:36 | 34.14780 | 135.16599 | 36176 ft | 386 kts | 243° |
| 2026-05-05 09:36 | 34.12260 | 135.10876 | 36191 ft | 386 kts | 243° |
| 2026-05-05 09:37 | 34.09738 | 135.05158 | 36188 ft | 385 kts | 243° |
| 2026-05-05 09:37 | 34.07221 | 134.99458 | 36207 ft | 385 kts | 243° |
| 2026-05-05 09:38 | 34.04699 | 134.93756 | 36201 ft | 385 kts | 243° |
| 2026-05-05 09:38 | 34.02182 | 134.88084 | 36176 ft | 385 kts | 243° |
| 2026-05-05 09:39 | 33.99649 | 134.82385 | 36190 ft | 385 kts | 243° |
| 2026-05-05 09:39 | 33.97110 | 134.76680 | 36194 ft | 386 kts | 243° |
| 2026-05-05 09:40 | 33.94571 | 134.70983 | 36193 ft | 386 kts | 243° |
| 2026-05-05 09:40 | 33.92039 | 134.65310 | 36188 ft | 387 kts | 243° |
| 2026-05-05 09:41 | 33.89482 | 134.59589 | 36206 ft | 388 kts | 242° |
| 2026-05-05 09:41 | 33.86937 | 134.53905 | 36207 ft | 387 kts | 242° |
| 2026-05-05 09:42 | 33.84373 | 134.48190 | 36194 ft | 388 kts | 242° |
| 2026-05-05 09:42 | 33.81810 | 134.42482 | 36195 ft | 388 kts | 242° |
| 2026-05-05 09:43 | 33.79242 | 134.36772 | 36198 ft | 388 kts | 242° |
| 2026-05-05 09:43 | 33.76683 | 134.31096 | 36195 ft | 388 kts | 242° |
| 2026-05-05 09:44 | 33.74111 | 134.25402 | 36184 ft | 387 kts | 242° |
| 2026-05-05 09:44 | 33.71542 | 134.19719 | 36207 ft | 386 kts | 242° |
| 2026-05-05 09:45 | 33.68975 | 134.14051 | 36208 ft | 385 kts | 242° |
| 2026-05-05 09:45 | 33.66408 | 134.08389 | 36203 ft | 386 kts | 242° |
| 2026-05-05 09:46 | 33.63847 | 134.02753 | 36220 ft | 386 kts | 242° |
| 2026-05-05 09:46 | 33.61262 | 133.97068 | 36192 ft | 388 kts | 242° |
| 2026-05-05 09:47 | 33.58671 | 133.91388 | 36193 ft | 388 kts | 242° |
| 2026-05-05 09:47 | 33.56079 | 133.85708 | 36186 ft | 388 kts | 242° |
| 2026-05-05 09:48 | 33.53501 | 133.80069 | 36190 ft | 388 kts | 242° |
| 2026-05-05 09:48 | 33.50900 | 133.74391 | 36188 ft | 388 kts | 242° |
| 2026-05-05 09:49 | 33.48298 | 133.68716 | 36187 ft | 388 kts | 242° |
| 2026-05-05 09:49 | 33.45692 | 133.63044 | 36189 ft | 388 kts | 242° |
| 2026-05-05 09:50 | 33.43085 | 133.57379 | 36185 ft | 388 kts | 241° |
| 2026-05-05 09:50 | 33.40473 | 133.51712 | 36186 ft | 388 kts | 241° |
| 2026-05-05 09:51 | 33.37875 | 133.46082 | 36194 ft | 388 kts | 241° |
| 2026-05-05 09:51 | 33.35260 | 133.40425 | 36182 ft | 388 kts | 241° |
| 2026-05-05 09:52 | 33.32643 | 133.34773 | 36196 ft | 389 kts | 241° |
| 2026-05-05 09:52 | 33.30019 | 133.29114 | 36196 ft | 389 kts | 241° |
| 2026-05-05 09:53 | 33.27386 | 133.23443 | 36196 ft | 389 kts | 241° |
| 2026-05-05 09:53 | 33.24714 | 133.18045 | 36191 ft | 389 kts | 236° |
| 2026-05-05 09:54 | 33.21586 | 133.12756 | 36192 ft | 390 kts | 236° |
| 2026-05-05 09:54 | 33.18453 | 133.07440 | 36194 ft | 391 kts | 236° |
| 2026-05-05 09:55 | 33.15345 | 133.02161 | 36200 ft | 391 kts | 236° |
| 2026-05-05 09:55 | 33.12211 | 132.96848 | 36185 ft | 391 kts | 236° |
| 2026-05-05 09:56 | 33.09083 | 132.91550 | 36180 ft | 390 kts | 236° |
| 2026-05-05 09:56 | 33.05961 | 132.86265 | 36185 ft | 389 kts | 236° |
| 2026-05-05 09:57 | 33.02835 | 132.80986 | 36150 ft | 390 kts | 236° |
| 2026-05-05 09:57 | 32.99705 | 132.75699 | 36182 ft | 391 kts | 236° |
| 2026-05-05 09:58 | 32.96581 | 132.70428 | 36183 ft | 393 kts | 236° |
| 2026-05-05 09:58 | 32.93424 | 132.65104 | 36184 ft | 395 kts | 236° |
| 2026-05-05 09:59 | 32.90250 | 132.59756 | 36184 ft | 395 kts | 236° |
| 2026-05-05 09:59 | 32.87076 | 132.54419 | 36177 ft | 394 kts | 236° |
| 2026-05-05 10:00 | 32.84445 | 132.50002 | 36173 ft | 393 kts | 236° |
| 2026-05-05 10:00 | 32.80762 | 132.43827 | 36171 ft | 392 kts | 236° |
| 2026-05-05 10:01 | 32.78118 | 132.39397 | 36193 ft | 391 kts | 236° |
| 2026-05-05 10:01 | 32.74971 | 132.34135 | 36173 ft | 391 kts | 236° |
| 2026-05-05 10:02 | 32.71818 | 132.28869 | 36168 ft | 390 kts | 236° |
| 2026-05-05 10:02 | 32.68697 | 132.23660 | 36139 ft | 389 kts | 236° |
| 2026-05-05 10:03 | 32.65558 | 132.18433 | 36179 ft | 390 kts | 236° |
| 2026-05-05 10:03 | 32.62456 | 132.13126 | 36173 ft | 391 kts | 236° |
| 2026-05-05 10:04 | 32.59364 | 132.07812 | 36169 ft | 392 kts | 236° |
| 2026-05-05 10:04 | 32.56260 | 132.02529 | 36142 ft | 393 kts | 236° |
| 2026-05-05 10:05 | 32.53105 | 131.97184 | 36172 ft | 393 kts | 236° |
| 2026-05-05 10:05 | 32.49988 | 131.91905 | 36169 ft | 394 kts | 236° |
| 2026-05-05 10:06 | 32.46846 | 131.86591 | 36168 ft | 394 kts | 236° |
| 2026-05-05 10:06 | 32.43695 | 131.81266 | 36158 ft | 394 kts | 236° |
| 2026-05-05 10:07 | 32.40553 | 131.75964 | 36183 ft | 394 kts | 236° |
| 2026-05-05 10:07 | 32.37418 | 131.70680 | 36176 ft | 394 kts | 236° |
| 2026-05-05 10:08 | 32.34254 | 131.65355 | 36171 ft | 394 kts | 236° |
| 2026-05-05 10:08 | 32.31127 | 131.60101 | 36167 ft | 393 kts | 236° |
| 2026-05-05 10:09 | 32.27969 | 131.54799 | 36183 ft | 394 kts | 235° |
| 2026-05-05 10:09 | 32.24804 | 131.49496 | 36179 ft | 394 kts | 235° |
| 2026-05-05 10:10 | 32.21656 | 131.44224 | 36171 ft | 394 kts | 235° |
| 2026-05-05 10:10 | 32.18466 | 131.38896 | 36158 ft | 395 kts | 235° |
| 2026-05-05 10:11 | 32.15312 | 131.33631 | 36176 ft | 396 kts | 235° |
| 2026-05-05 10:11 | 32.12123 | 131.28316 | 36169 ft | 396 kts | 235° |
| 2026-05-05 10:12 | 32.08941 | 131.23021 | 36186 ft | 396 kts | 235° |
| 2026-05-05 10:12 | 32.05751 | 131.17720 | 36180 ft | 396 kts | 235° |
| 2026-05-05 10:13 | 32.02570 | 131.12441 | 36199 ft | 396 kts | 235° |
| 2026-05-05 10:13 | 31.99367 | 131.07132 | 36194 ft | 396 kts | 236° |
| 2026-05-05 10:14 | 31.96160 | 131.01825 | 36164 ft | 396 kts | 235° |
| 2026-05-05 10:14 | 31.92987 | 130.96580 | 36141 ft | 396 kts | 236° |
| 2026-05-05 10:15 | 31.89797 | 130.91316 | 36148 ft | 395 kts | 236° |
| 2026-05-05 10:15 | 31.86595 | 130.86034 | 36147 ft | 397 kts | 236° |
| 2026-05-05 10:16 | 31.83377 | 130.80738 | 36123 ft | 398 kts | 235° |
| 2026-05-05 10:16 | 31.80151 | 130.75436 | 36125 ft | 398 kts | 236° |
| 2026-05-05 10:17 | 31.76926 | 130.70142 | 36130 ft | 398 kts | 236° |
| 2026-05-05 10:17 | 31.73715 | 130.64875 | 36131 ft | 398 kts | 236° |
| 2026-05-05 10:18 | 31.70494 | 130.59602 | 36134 ft | 398 kts | 236° |
| 2026-05-05 10:18 | 31.67200 | 130.54383 | 36132 ft | 398 kts | 234° |
| 2026-05-05 10:19 | 31.63790 | 130.49236 | 36161 ft | 399 kts | 234° |
| 2026-05-05 10:19 | 31.60386 | 130.44100 | 36171 ft | 399 kts | 234° |
| 2026-05-05 10:20 | 31.56984 | 130.38942 | 36157 ft | 400 kts | 234° |
| 2026-05-05 10:20 | 31.53583 | 130.33781 | 36156 ft | 400 kts | 234° |
| 2026-05-05 10:21 | 31.50173 | 130.28609 | 36146 ft | 400 kts | 234° |
| 2026-05-05 10:21 | 31.46771 | 130.23458 | 36163 ft | 400 kts | 234° |
| 2026-05-05 10:22 | 31.43389 | 130.18343 | 36142 ft | 399 kts | 234° |
| 2026-05-05 10:22 | 31.39988 | 130.13202 | 36145 ft | 400 kts | 234° |
| 2026-05-05 10:23 | 31.36573 | 130.08054 | 36145 ft | 400 kts | 234° |
| 2026-05-05 10:23 | 31.33164 | 130.02918 | 36172 ft | 399 kts | 234° |
| 2026-05-05 10:24 | 31.29748 | 129.97777 | 36157 ft | 400 kts | 234° |
| 2026-05-05 10:24 | 31.26334 | 129.92654 | 36136 ft | 400 kts | 234° |
| 2026-05-05 10:25 | 31.22909 | 129.87526 | 36146 ft | 400 kts | 234° |
| 2026-05-05 10:25 | 31.19473 | 129.82386 | 36145 ft | 401 kts | 234° |
| 2026-05-05 10:26 | 31.16057 | 129.77281 | 36149 ft | 402 kts | 234° |
| 2026-05-05 10:26 | 31.12612 | 129.72138 | 36140 ft | 402 kts | 234° |
| 2026-05-05 10:27 | 31.09166 | 129.67002 | 36139 ft | 402 kts | 234° |
| 2026-05-05 10:27 | 31.05719 | 129.61870 | 36139 ft | 401 kts | 234° |
| 2026-05-05 10:28 | 31.02277 | 129.56751 | 36157 ft | 401 kts | 234° |
| 2026-05-05 10:28 | 30.98828 | 129.51631 | 36132 ft | 401 kts | 234° |
| 2026-05-05 10:29 | 30.95409 | 129.46561 | 36139 ft | 400 kts | 234° |
| 2026-05-05 10:29 | 30.91958 | 129.41448 | 36138 ft | 400 kts | 234° |
| 2026-05-05 10:30 | 30.88509 | 129.36347 | 36144 ft | 400 kts | 234° |
| 2026-05-05 10:30 | 30.85078 | 129.31278 | 36143 ft | 400 kts | 234° |
| 2026-05-05 10:31 | 30.81629 | 129.26187 | 36136 ft | 400 kts | 234° |
| 2026-05-05 10:31 | 30.78180 | 129.21104 | 36140 ft | 400 kts | 234° |
| 2026-05-05 10:32 | 30.74770 | 129.15998 | 36140 ft | 400 kts | 234° |
| 2026-05-05 10:32 | 30.71420 | 129.10881 | 36152 ft | 400 kts | 235° |
| 2026-05-05 10:33 | 30.68051 | 129.05738 | 36140 ft | 400 kts | 235° |
| 2026-05-05 10:33 | 30.64668 | 129.00594 | 36136 ft | 401 kts | 235° |
| 2026-05-05 10:34 | 30.61272 | 128.95443 | 36138 ft | 401 kts | 234° |
| 2026-05-05 10:34 | 30.57880 | 128.90306 | 36122 ft | 401 kts | 234° |
| 2026-05-05 10:35 | 30.54472 | 128.85151 | 36146 ft | 402 kts | 234° |
| 2026-05-05 10:35 | 30.51071 | 128.80015 | 36137 ft | 402 kts | 234° |
| 2026-05-05 10:36 | 30.47657 | 128.74865 | 36133 ft | 402 kts | 234° |
| 2026-05-05 10:36 | 30.44267 | 128.69757 | 36103 ft | 402 kts | 234° |
| 2026-05-05 10:37 | 30.40851 | 128.64617 | 36145 ft | 402 kts | 234° |
| 2026-05-05 10:37 | 30.37439 | 128.59489 | 36135 ft | 402 kts | 234° |
| 2026-05-05 10:38 | 30.34018 | 128.54355 | 36129 ft | 401 kts | 234° |
| 2026-05-05 10:38 | 30.30613 | 128.49252 | 36130 ft | 401 kts | 234° |
| 2026-05-05 10:39 | 30.27205 | 128.44149 | 36121 ft | 400 kts | 234° |
| 2026-05-05 10:39 | 30.23822 | 128.39091 | 36136 ft | 400 kts | 234° |
| 2026-05-05 10:40 | 30.20411 | 128.33998 | 36123 ft | 400 kts | 234° |
| 2026-05-05 10:40 | 30.16996 | 128.28905 | 36133 ft | 401 kts | 234° |
| 2026-05-05 10:41 | 30.13583 | 128.23820 | 36133 ft | 401 kts | 234° |
| 2026-05-05 10:41 | 30.10158 | 128.18726 | 36160 ft | 401 kts | 234° |
| 2026-05-05 10:42 | 30.05013 | 128.11085 | 36130 ft | 401 kts | 234° |
| 2026-05-05 10:43 | 30.01587 | 128.06004 | 36131 ft | 401 kts | 234° |
| 2026-05-05 10:43 | 29.98162 | 128.00931 | 36124 ft | 401 kts | 234° |
| 2026-05-05 10:44 | 29.94733 | 127.95858 | 36130 ft | 401 kts | 234° |
| 2026-05-05 10:44 | 29.91316 | 127.90809 | 36141 ft | 401 kts | 234° |
| 2026-05-05 10:45 | 29.88456 | 127.86586 | 36126 ft | 401 kts | 234° |
| 2026-05-05 10:45 | 29.84989 | 127.81553 | 36098 ft | 402 kts | 232° |
| 2026-05-05 10:46 | 29.81335 | 127.76678 | 36125 ft | 402 kts | 231° |
| 2026-05-05 10:46 | 29.77666 | 127.71827 | 36129 ft | 401 kts | 231° |
| 2026-05-05 10:47 | 29.74013 | 127.66956 | 36136 ft | 402 kts | 232° |
| 2026-05-05 10:47 | 29.70369 | 127.62081 | 36138 ft | 401 kts | 232° |
| 2026-05-05 10:48 | 29.66752 | 127.57245 | 36114 ft | 401 kts | 232° |
| 2026-05-05 10:48 | 29.63107 | 127.52379 | 36128 ft | 401 kts | 231° |
| 2026-05-05 10:49 | 29.59457 | 127.47512 | 36150 ft | 402 kts | 231° |
| 2026-05-05 10:49 | 29.55882 | 127.42552 | 36134 ft | 402 kts | 233° |
| 2026-05-05 10:50 | 29.52427 | 127.37488 | 36109 ft | 403 kts | 234° |
| 2026-05-05 10:50 | 29.48966 | 127.32425 | 36123 ft | 403 kts | 233° |
| 2026-05-05 10:51 | 29.45482 | 127.27370 | 36123 ft | 404 kts | 233° |
| 2026-05-05 10:51 | 29.41988 | 127.22322 | 36141 ft | 404 kts | 233° |
| 2026-05-05 10:52 | 29.38485 | 127.17271 | 36127 ft | 405 kts | 233° |
| 2026-05-05 10:52 | 29.35001 | 127.12252 | 36111 ft | 404 kts | 233° |
| 2026-05-05 10:53 | 29.31500 | 127.07216 | 36113 ft | 404 kts | 233° |
| 2026-05-05 10:53 | 29.27988 | 127.02170 | 36118 ft | 404 kts | 233° |
| 2026-05-05 10:54 | 29.24486 | 126.97143 | 36127 ft | 405 kts | 233° |
| 2026-05-05 10:54 | 29.20972 | 126.92107 | 36105 ft | 404 kts | 233° |
| 2026-05-05 10:55 | 29.17460 | 126.87078 | 36113 ft | 403 kts | 233° |
| 2026-05-05 10:55 | 29.13951 | 126.82060 | 36118 ft | 403 kts | 233° |
| 2026-05-05 10:56 | 29.10450 | 126.77060 | 36120 ft | 403 kts | 233° |
| 2026-05-05 10:56 | 29.06941 | 126.72054 | 36125 ft | 403 kts | 233° |
| 2026-05-05 10:57 | 29.03454 | 126.67085 | 36109 ft | 403 kts | 233° |
| 2026-05-05 10:57 | 28.99945 | 126.62089 | 36119 ft | 404 kts | 233° |
| 2026-05-05 10:58 | 28.96416 | 126.57083 | 36116 ft | 404 kts | 233° |
| 2026-05-05 10:58 | 28.92794 | 126.52165 | 36114 ft | 405 kts | 232° |
| 2026-05-05 10:59 | 28.89132 | 126.47260 | 36089 ft | 406 kts | 232° |
| 2026-05-05 10:59 | 28.85499 | 126.42378 | 36108 ft | 406 kts | 232° |
| 2026-05-05 11:00 | 28.81845 | 126.37461 | 36113 ft | 406 kts | 232° |
| 2026-05-05 11:00 | 28.78186 | 126.32537 | 36115 ft | 406 kts | 232° |
| 2026-05-05 11:01 | 28.74529 | 126.27622 | 36113 ft | 406 kts | 232° |
| 2026-05-05 11:01 | 28.70871 | 126.22712 | 36112 ft | 406 kts | 232° |
| 2026-05-05 11:02 | 28.67231 | 126.17830 | 36107 ft | 406 kts | 232° |
| 2026-05-05 11:02 | 28.63573 | 126.12933 | 36107 ft | 406 kts | 232° |
| 2026-05-05 11:03 | 28.60007 | 126.07970 | 36106 ft | 405 kts | 233° |
| 2026-05-05 11:03 | 28.56479 | 126.02959 | 36109 ft | 405 kts | 233° |
| 2026-05-05 11:04 | 28.52955 | 125.97970 | 36103 ft | 404 kts | 233° |
| 2026-05-05 11:04 | 28.49437 | 125.93014 | 36106 ft | 404 kts | 233° |
| 2026-05-05 11:05 | 28.45899 | 125.88040 | 36109 ft | 405 kts | 233° |
| 2026-05-05 11:05 | 28.42353 | 125.83065 | 36109 ft | 405 kts | 233° |
| 2026-05-05 11:06 | 28.38806 | 125.78093 | 36090 ft | 404 kts | 233° |
| 2026-05-05 11:06 | 28.35261 | 125.73130 | 36118 ft | 405 kts | 233° |
| 2026-05-05 11:07 | 28.31710 | 125.68164 | 36110 ft | 405 kts | 233° |
| 2026-05-05 11:07 | 28.28176 | 125.63228 | 36108 ft | 405 kts | 233° |
| 2026-05-05 11:08 | 28.24623 | 125.58271 | 36102 ft | 405 kts | 233° |
| 2026-05-05 11:08 | 28.21071 | 125.53321 | 36110 ft | 404 kts | 233° |
| 2026-05-05 11:09 | 28.17516 | 125.48373 | 36114 ft | 404 kts | 233° |
| 2026-05-05 11:09 | 28.13956 | 125.43424 | 36107 ft | 404 kts | 233° |
| 2026-05-05 11:10 | 28.10401 | 125.38486 | 36099 ft | 404 kts | 233° |
| 2026-05-05 11:10 | 28.06870 | 125.33589 | 36107 ft | 404 kts | 233° |
| 2026-05-05 11:11 | 28.03318 | 125.28668 | 36098 ft | 403 kts | 232° |
| 2026-05-05 11:11 | 27.99762 | 125.23746 | 36128 ft | 404 kts | 233° |
| 2026-05-05 11:12 | 27.96192 | 125.18812 | 36104 ft | 405 kts | 233° |
| 2026-05-05 11:12 | 27.92618 | 125.13877 | 36101 ft | 405 kts | 233° |
| 2026-05-05 11:13 | 27.89047 | 125.08953 | 36098 ft | 405 kts | 233° |
| 2026-05-05 11:13 | 27.85476 | 125.04033 | 36099 ft | 405 kts | 232° |
| 2026-05-05 11:14 | 27.81898 | 124.99110 | 36125 ft | 405 kts | 232° |
| 2026-05-05 11:14 | 27.78315 | 124.94185 | 36104 ft | 406 kts | 232° |
| 2026-05-05 11:15 | 27.74747 | 124.89287 | 36105 ft | 405 kts | 232° |
| 2026-05-05 11:15 | 27.71182 | 124.84397 | 36107 ft | 405 kts | 232° |
| 2026-05-05 11:16 | 27.67574 | 124.79455 | 36091 ft | 405 kts | 232° |
| 2026-05-05 11:16 | 27.64012 | 124.74579 | 36102 ft | 406 kts | 232° |
| 2026-05-05 11:17 | 27.60415 | 124.69659 | 36107 ft | 407 kts | 232° |
| 2026-05-05 11:17 | 27.56801 | 124.64711 | 36101 ft | 408 kts | 232° |
| 2026-05-05 11:18 | 27.53195 | 124.59775 | 36063 ft | 407 kts | 232° |
| 2026-05-05 11:18 | 27.49616 | 124.54881 | 36093 ft | 409 kts | 232° |
| 2026-05-05 11:19 | 27.45983 | 124.49920 | 36096 ft | 410 kts | 232° |
| 2026-05-05 11:19 | 27.42343 | 124.44954 | 36114 ft | 412 kts | 232° |
| 2026-05-05 11:20 | 27.38691 | 124.39980 | 36101 ft | 412 kts | 232° |
| 2026-05-05 11:20 | 27.35035 | 124.35005 | 36071 ft | 412 kts | 232° |
| 2026-05-05 11:21 | 27.31377 | 124.30032 | 36091 ft | 412 kts | 232° |
| 2026-05-05 11:21 | 27.27717 | 124.25062 | 36096 ft | 413 kts | 232° |
| 2026-05-05 11:22 | 27.24071 | 124.20118 | 36117 ft | 413 kts | 232° |
| 2026-05-05 11:22 | 27.20407 | 124.15154 | 36104 ft | 412 kts | 232° |
| 2026-05-05 11:23 | 27.16746 | 124.10199 | 36053 ft | 411 kts | 232° |
| 2026-05-05 11:23 | 27.13089 | 124.05253 | 36081 ft | 412 kts | 232° |
| 2026-05-05 11:24 | 27.09414 | 124.00291 | 36087 ft | 415 kts | 232° |
| 2026-05-05 11:24 | 27.05678 | 123.95304 | 36112 ft | 417 kts | 232° |
| 2026-05-05 11:25 | 27.01932 | 123.90346 | 36102 ft | 415 kts | 232° |
| 2026-05-05 11:25 | 26.98217 | 123.85428 | 36043 ft | 412 kts | 232° |
| 2026-05-05 11:26 | 26.94544 | 123.80564 | 36071 ft | 411 kts | 232° |
| 2026-05-05 11:26 | 26.90815 | 123.75628 | 36095 ft | 413 kts | 232° |
| 2026-05-05 11:27 | 26.87116 | 123.70738 | 36089 ft | 415 kts | 232° |
| 2026-05-05 11:27 | 26.83382 | 123.65807 | 36081 ft | 415 kts | 231° |
| 2026-05-05 11:28 | 26.79640 | 123.60873 | 36084 ft | 415 kts | 231° |
| 2026-05-05 11:28 | 26.75928 | 123.55982 | 36086 ft | 414 kts | 231° |
| 2026-05-05 11:29 | 26.72198 | 123.51074 | 36076 ft | 413 kts | 231° |
| 2026-05-05 11:29 | 26.68484 | 123.46190 | 36095 ft | 412 kts | 231° |
| 2026-05-05 11:30 | 26.64776 | 123.41320 | 36080 ft | 411 kts | 231° |
| 2026-05-05 11:30 | 26.61090 | 123.36481 | 36050 ft | 411 kts | 231° |
| 2026-05-05 11:31 | 26.57985 | 123.32407 | 36077 ft | 413 kts | 231° |
| 2026-05-05 11:31 | 26.54241 | 123.27496 | 36084 ft | 416 kts | 231° |
| 2026-05-05 11:32 | 26.50473 | 123.22561 | 36083 ft | 418 kts | 231° |
| 2026-05-05 11:32 | 26.46693 | 123.17614 | 36080 ft | 419 kts | 231° |
| 2026-05-05 11:33 | 26.42903 | 123.12661 | 36087 ft | 419 kts | 231° |
| 2026-05-05 11:33 | 26.39150 | 123.07762 | 36073 ft | 419 kts | 231° |
| 2026-05-05 11:34 | 26.35346 | 123.02799 | 36077 ft | 420 kts | 231° |
| 2026-05-05 11:34 | 26.31543 | 122.97849 | 36077 ft | 421 kts | 231° |
| 2026-05-05 11:35 | 26.27715 | 122.92891 | 36071 ft | 422 kts | 231° |
| 2026-05-05 11:35 | 26.23902 | 122.87958 | 36093 ft | 422 kts | 231° |
| 2026-05-05 11:36 | 26.20073 | 122.83006 | 36064 ft | 421 kts | 231° |
| 2026-05-05 11:36 | 26.16249 | 122.78065 | 36076 ft | 421 kts | 231° |
| 2026-05-05 11:37 | 26.12413 | 122.73113 | 36066 ft | 421 kts | 231° |
| 2026-05-05 11:37 | 26.08582 | 122.68173 | 36066 ft | 421 kts | 231° |
| 2026-05-05 11:38 | 26.04754 | 122.63242 | 36065 ft | 421 kts | 231° |
| 2026-05-05 11:38 | 26.00914 | 122.58301 | 36061 ft | 421 kts | 231° |
| 2026-05-05 11:39 | 25.97081 | 122.53373 | 36063 ft | 422 kts | 231° |
| 2026-05-05 11:39 | 25.93244 | 122.48446 | 36063 ft | 422 kts | 231° |
| 2026-05-05 11:40 | 25.89407 | 122.43502 | 36058 ft | 422 kts | 231° |
| 2026-05-05 11:40 | 25.85599 | 122.38597 | 36058 ft | 422 kts | 231° |
| 2026-05-05 11:41 | 25.81759 | 122.33655 | 36068 ft | 423 kts | 232° |
| 2026-05-05 11:41 | 25.77911 | 122.28708 | 36057 ft | 424 kts | 232° |
| 2026-05-05 11:42 | 25.74050 | 122.23751 | 36053 ft | 425 kts | 232° |
| 2026-05-05 11:42 | 25.70181 | 122.18791 | 36055 ft | 425 kts | 232° |
| 2026-05-05 11:43 | 25.66316 | 122.13837 | 36054 ft | 425 kts | 232° |
| 2026-05-05 11:43 | 25.62441 | 122.08878 | 36035 ft | 425 kts | 232° |
| 2026-05-05 11:44 | 25.58583 | 122.03958 | 36050 ft | 427 kts | 232° |
| 2026-05-05 11:44 | 25.54668 | 121.98983 | 36052 ft | 428 kts | 232° |
| 2026-05-05 11:45 | 25.50749 | 121.94005 | 36036 ft | 429 kts | 232° |
| 2026-05-05 11:45 | 25.46815 | 121.89010 | 36035 ft | 430 kts | 232° |
| 2026-05-05 11:46 | 25.42879 | 121.84018 | 36011 ft | 430 kts | 232° |
| 2026-05-05 11:46 | 25.38940 | 121.79027 | 36035 ft | 430 kts | 232° |
| 2026-05-05 11:47 | 25.35010 | 121.74052 | 36016 ft | 430 kts | 232° |
| 2026-05-05 11:47 | 25.31078 | 121.69080 | 36010 ft | 430 kts | 232° |
| 2026-05-05 11:48 | 25.25184 | 121.61637 | 35981 ft | 430 kts | 232° |
| 2026-05-05 11:48 | 25.21249 | 121.56675 | 35957 ft | 428 kts | 232° |
| 2026-05-05 11:49 | 25.17331 | 121.51740 | 36015 ft | 428 kts | 232° |
| 2026-05-05 11:49 | 25.13455 | 121.46739 | 36002 ft | 430 kts | 233° |
| 2026-05-05 11:50 | 25.09572 | 121.41689 | 36001 ft | 431 kts | 232° |
| 2026-05-05 11:50 | 25.05690 | 121.36660 | 36023 ft | 431 kts | 232° |
| 2026-05-05 11:51 | 25.01813 | 121.31650 | 36001 ft | 431 kts | 233° |
| 2026-05-05 11:51 | 24.97925 | 121.26634 | 36014 ft | 429 kts | 233° |
| 2026-05-05 11:52 | 24.94047 | 121.21633 | 36025 ft | 429 kts | 233° |
| 2026-05-05 11:52 | 24.90171 | 121.16640 | 36017 ft | 428 kts | 233° |
| 2026-05-05 11:53 | 24.86296 | 121.11654 | 36021 ft | 428 kts | 233° |
| 2026-05-05 11:53 | 24.82420 | 121.06671 | 36017 ft | 428 kts | 233° |
| 2026-05-05 11:54 | 24.78583 | 121.01728 | 36011 ft | 428 kts | 233° |
| 2026-05-05 11:54 | 24.74716 | 120.96745 | 36025 ft | 428 kts | 233° |
| 2026-05-05 11:55 | 24.70825 | 120.91736 | 36017 ft | 428 kts | 232° |
| 2026-05-05 11:55 | 24.66976 | 120.86787 | 36019 ft | 429 kts | 232° |
| 2026-05-05 11:56 | 24.63097 | 120.81805 | 36015 ft | 429 kts | 232° |
| 2026-05-05 11:56 | 24.59203 | 120.76809 | 36029 ft | 429 kts | 233° |
| 2026-05-05 11:57 | 24.55289 | 120.71860 | 36020 ft | 430 kts | 230° |
| 2026-05-05 11:57 | 24.51132 | 120.67114 | 36026 ft | 432 kts | 230° |
| 2026-05-05 11:58 | 24.46938 | 120.62379 | 36019 ft | 432 kts | 230° |
| 2026-05-05 11:58 | 24.42753 | 120.57637 | 36023 ft | 432 kts | 230° |
| 2026-05-05 11:59 | 24.38603 | 120.52928 | 36004 ft | 432 kts | 230° |
| 2026-05-05 11:59 | 24.34426 | 120.48188 | 36016 ft | 431 kts | 230° |
| 2026-05-05 12:00 | 24.30248 | 120.43453 | 36020 ft | 431 kts | 230° |
| 2026-05-05 12:00 | 24.26085 | 120.38739 | 36035 ft | 431 kts | 230° |
| 2026-05-05 12:01 | 24.21913 | 120.34006 | 36026 ft | 431 kts | 230° |
| 2026-05-05 12:01 | 24.17776 | 120.29250 | 35994 ft | 431 kts | 230° |
| 2026-05-05 12:02 | 24.13638 | 120.24544 | 36017 ft | 431 kts | 230° |
| 2026-05-05 12:02 | 24.09475 | 120.19818 | 36023 ft | 431 kts | 230° |
| 2026-05-05 12:03 | 24.05309 | 120.15086 | 36028 ft | 432 kts | 230° |
| 2026-05-05 12:03 | 24.01138 | 120.10353 | 36038 ft | 432 kts | 230° |
| 2026-05-05 12:04 | 23.96967 | 120.05645 | 36033 ft | 433 kts | 230° |
| 2026-05-05 12:04 | 23.92760 | 120.00925 | 36022 ft | 433 kts | 230° |
| 2026-05-05 12:05 | 23.88556 | 119.96208 | 36030 ft | 434 kts | 230° |
| 2026-05-05 12:05 | 23.84339 | 119.91477 | 36025 ft | 435 kts | 230° |
| 2026-05-05 12:06 | 23.80113 | 119.86741 | 36020 ft | 435 kts | 230° |
| 2026-05-05 12:06 | 23.75876 | 119.81997 | 36053 ft | 436 kts | 230° |
| 2026-05-05 12:07 | 23.71648 | 119.77267 | 36021 ft | 435 kts | 230° |
| 2026-05-05 12:07 | 23.67421 | 119.72542 | 36024 ft | 434 kts | 230° |
| 2026-05-05 12:08 | 23.63224 | 119.67856 | 36022 ft | 434 kts | 230° |
| 2026-05-05 12:08 | 23.59213 | 119.62977 | 36022 ft | 430 kts | 236° |
| 2026-05-05 12:09 | 23.55916 | 119.57575 | 36028 ft | 427 kts | 241° |
| 2026-05-05 12:09 | 23.52758 | 119.52079 | 36014 ft | 429 kts | 240° |
| 2026-05-05 12:10 | 23.49565 | 119.46560 | 36011 ft | 430 kts | 241° |
| 2026-05-05 12:10 | 23.46355 | 119.41028 | 36016 ft | 433 kts | 241° |
| 2026-05-05 12:11 | 23.43126 | 119.35471 | 36021 ft | 435 kts | 240° |
| 2026-05-05 12:11 | 23.39878 | 119.29889 | 36018 ft | 437 kts | 240° |
| 2026-05-05 12:12 | 23.36624 | 119.24302 | 36031 ft | 437 kts | 240° |
| 2026-05-05 12:12 | 23.33387 | 119.18751 | 36024 ft | 437 kts | 240° |
| 2026-05-05 12:13 | 23.30132 | 119.13174 | 36005 ft | 436 kts | 240° |
| 2026-05-05 12:13 | 23.26880 | 119.07609 | 36019 ft | 435 kts | 240° |
| 2026-05-05 12:14 | 23.23637 | 119.02064 | 36034 ft | 434 kts | 240° |
| 2026-05-05 12:14 | 23.20411 | 118.96554 | 36027 ft | 434 kts | 240° |
| 2026-05-05 12:15 | 23.17693 | 118.91916 | 36029 ft | 434 kts | 240° |
| 2026-05-05 12:15 | 23.13914 | 118.85476 | 36031 ft | 435 kts | 240° |
| 2026-05-05 12:16 | 23.10661 | 118.79937 | 36030 ft | 435 kts | 240° |
| 2026-05-05 12:16 | 23.07396 | 118.74386 | 36025 ft | 436 kts | 240° |
| 2026-05-05 12:17 | 23.04678 | 118.69768 | 36025 ft | 437 kts | 240° |
| 2026-05-05 12:17 | 23.01395 | 118.64195 | 36040 ft | 438 kts | 240° |
| 2026-05-05 12:18 | 22.98104 | 118.58613 | 36030 ft | 439 kts | 240° |
| 2026-05-05 12:18 | 22.94802 | 118.53024 | 36024 ft | 440 kts | 240° |
| 2026-05-05 12:19 | 22.91490 | 118.47449 | 36024 ft | 440 kts | 240° |
| 2026-05-05 12:19 | 22.88166 | 118.41866 | 35989 ft | 439 kts | 240° |
| 2026-05-05 12:20 | 22.84867 | 118.36328 | 36022 ft | 440 kts | 240° |
| 2026-05-05 12:20 | 22.81541 | 118.30746 | 36029 ft | 441 kts | 240° |
| 2026-05-05 12:21 | 22.78211 | 118.25162 | 36027 ft | 441 kts | 240° |
| 2026-05-05 12:21 | 22.74868 | 118.19565 | 36025 ft | 442 kts | 240° |
| 2026-05-05 12:22 | 22.71543 | 118.14003 | 36024 ft | 442 kts | 240° |
| 2026-05-05 12:22 | 22.68196 | 118.08410 | 36021 ft | 442 kts | 240° |
| 2026-05-05 12:23 | 22.64848 | 118.02820 | 36024 ft | 443 kts | 240° |
| 2026-05-05 12:23 | 22.61493 | 117.97224 | 36021 ft | 443 kts | 240° |
| 2026-05-05 12:24 | 22.58145 | 117.91627 | 36019 ft | 442 kts | 240° |
| 2026-05-05 12:24 | 22.54832 | 117.86056 | 36018 ft | 442 kts | 240° |
| 2026-05-05 12:25 | 22.51495 | 117.80449 | 36022 ft | 442 kts | 240° |
| 2026-05-05 12:25 | 22.48163 | 117.74858 | 36022 ft | 442 kts | 240° |
| 2026-05-05 12:26 | 22.44821 | 117.69260 | 35989 ft | 442 kts | 240° |
| 2026-05-05 12:26 | 22.41479 | 117.63666 | 36013 ft | 443 kts | 240° |
| 2026-05-05 12:27 | 22.38147 | 117.58094 | 36021 ft | 444 kts | 240° |
| 2026-05-05 12:27 | 22.35044 | 117.52351 | 36006 ft | 441 kts | 250° |
| 2026-05-05 12:28 | 22.33371 | 117.46000 | 36027 ft | 439 kts | 261° |
| 2026-05-05 12:28 | 22.33002 | 117.39434 | 36026 ft | 438 kts | 269° |
| 2026-05-05 12:29 | 22.32943 | 117.32836 | 36020 ft | 439 kts | 269° |
| 2026-05-05 12:29 | 22.32864 | 117.26233 | 36019 ft | 439 kts | 269° |
| 2026-05-05 12:30 | 22.32755 | 117.19675 | 36019 ft | 439 kts | 269° |
| 2026-05-05 12:30 | 22.32630 | 117.13075 | 36025 ft | 439 kts | 269° |
| 2026-05-05 12:31 | 22.32501 | 117.06481 | 36018 ft | 439 kts | 269° |
| 2026-05-05 12:31 | 22.32370 | 116.99884 | 36019 ft | 438 kts | 269° |
| 2026-05-05 12:32 | 22.32237 | 116.93308 | 36018 ft | 438 kts | 269° |
| 2026-05-05 12:32 | 22.32101 | 116.86739 | 36020 ft | 437 kts | 269° |
| 2026-05-05 12:33 | 22.31963 | 116.80167 | 35993 ft | 437 kts | 269° |
| 2026-05-05 12:33 | 22.31822 | 116.73592 | 36017 ft | 438 kts | 269° |
| 2026-05-05 12:34 | 22.31679 | 116.67018 | 36021 ft | 439 kts | 269° |
| 2026-05-05 12:34 | 22.31533 | 116.60453 | 36019 ft | 440 kts | 269° |
| 2026-05-05 12:35 | 22.31383 | 116.53839 | 36019 ft | 441 kts | 269° |
| 2026-05-05 12:35 | 22.31231 | 116.47214 | 36019 ft | 441 kts | 269° |
| 2026-05-05 12:36 | 22.31076 | 116.40581 | 36019 ft | 441 kts | 269° |
| 2026-05-05 12:36 | 22.30918 | 116.33962 | 36018 ft | 441 kts | 269° |
| 2026-05-05 12:37 | 22.30757 | 116.27329 | 36018 ft | 441 kts | 269° |
| 2026-05-05 12:37 | 22.30595 | 116.20751 | 36019 ft | 440 kts | 269° |
| 2026-05-05 12:38 | 22.30429 | 116.14149 | 36018 ft | 440 kts | 269° |
| 2026-05-05 12:38 | 22.30261 | 116.07532 | 36019 ft | 440 kts | 269° |
| 2026-05-05 12:39 | 22.30090 | 116.00925 | 36019 ft | 440 kts | 269° |
| 2026-05-05 12:39 | 22.29916 | 115.94291 | 35280 ft | 452 kts | 269° |
| 2026-05-05 12:40 | 22.29826 | 115.90900 | 34567 ft | 451 kts | 269° |
| 2026-05-05 12:40 | 22.29735 | 115.87501 | 33656 ft | 452 kts | 269° |
| 2026-05-05 12:40 | 22.29644 | 115.84120 | 32853 ft | 448 kts | 270° |
| 2026-05-05 12:40 | 22.29555 | 115.80752 | 31778 ft | 451 kts | 270° |
| 2026-05-05 12:41 | 22.29480 | 115.77333 | 30792 ft | 452 kts | 270° |
| 2026-05-05 12:41 | 22.29409 | 115.73948 | 29969 ft | 449 kts | 270° |
| 2026-05-05 12:41 | 22.29336 | 115.70600 | 29122 ft | 445 kts | 270° |
| 2026-05-05 12:41 | 22.29259 | 115.67276 | 28370 ft | 440 kts | 269° |
| 2026-05-05 12:42 | 22.29172 | 115.64027 | 27681 ft | 436 kts | 269° |
| 2026-05-05 12:42 | 22.29078 | 115.60730 | 26995 ft | 431 kts | 269° |
| 2026-05-05 12:42 | 22.28986 | 115.57546 | 26340 ft | 428 kts | 269° |
| 2026-05-05 12:42 | 22.28894 | 115.54311 | 25661 ft | 425 kts | 269° |
| 2026-05-05 12:43 | 22.28804 | 115.51160 | 25009 ft | 422 kts | 268° |
| 2026-05-05 12:43 | 22.28714 | 115.48003 | 24350 ft | 420 kts | 268° |
| 2026-05-05 12:43 | 22.28624 | 115.44848 | 23697 ft | 419 kts | 268° |
| 2026-05-05 12:43 | 22.28533 | 115.41702 | 22957 ft | 417 kts | 268° |
| 2026-05-05 12:44 | 22.28443 | 115.38583 | 22266 ft | 414 kts | 268° |
| 2026-05-05 12:44 | 22.28353 | 115.35500 | 21631 ft | 410 kts | 268° |
| 2026-05-05 12:44 | 22.28262 | 115.32429 | 20994 ft | 407 kts | 268° |
| 2026-05-05 12:44 | 22.28170 | 115.29383 | 20375 ft | 403 kts | 268° |
| 2026-05-05 12:45 | 22.28077 | 115.26370 | 19773 ft | 400 kts | 268° |
| 2026-05-05 12:45 | 22.27984 | 115.23376 | 19153 ft | 398 kts | 268° |
| 2026-05-05 12:45 | 22.27891 | 115.20388 | 18544 ft | 395 kts | 268° |
| 2026-05-05 12:45 | 22.27799 | 115.17434 | 17883 ft | 393 kts | 268° |
| 2026-05-05 12:46 | 22.27709 | 115.14531 | 17256 ft | 389 kts | 268° |
| 2026-05-05 12:46 | 22.27616 | 115.11581 | 16640 ft | 386 kts | 268° |
| 2026-05-05 12:46 | 22.27526 | 115.08740 | 16051 ft | 383 kts | 268° |
| 2026-05-05 12:46 | 22.27435 | 115.05872 | 15482 ft | 380 kts | 268° |
| 2026-05-05 12:47 | 22.27344 | 115.03034 | 14907 ft | 377 kts | 268° |
| 2026-05-05 12:47 | 22.27254 | 115.00206 | 14329 ft | 375 kts | 268° |
| 2026-05-05 12:47 | 22.27163 | 114.97396 | 13742 ft | 374 kts | 267° |
| 2026-05-05 12:47 | 22.27074 | 114.94639 | 13099 ft | 356 kts | 267° |
| 2026-05-05 12:48 | 22.26989 | 114.92023 | 12559 ft | 341 kts | 267° |
| 2026-05-05 12:48 | 22.26902 | 114.89508 | 12036 ft | 329 kts | 267° |
| 2026-05-05 12:48 | 22.26816 | 114.87056 | 11570 ft | 328 kts | 267° |
| 2026-05-05 12:48 | 22.26728 | 114.84591 | 11381 ft | 327 kts | 267° |
| 2026-05-05 12:49 | 22.26644 | 114.82186 | 11236 ft | 320 kts | 267° |
| 2026-05-05 12:49 | 22.26518 | 114.79830 | 11103 ft | 306 kts | 259° |
| 2026-05-05 12:49 | 22.25782 | 114.77674 | 11032 ft | 314 kts | 239° |
| 2026-05-05 12:49 | 22.24407 | 114.75824 | 11020 ft | 321 kts | 226° |
| 2026-05-05 12:50 | 22.22781 | 114.74146 | 11008 ft | 322 kts | 224° |
| 2026-05-05 12:50 | 22.21170 | 114.72529 | 10739 ft | 310 kts | 224° |
| 2026-05-05 12:50 | 22.19643 | 114.70999 | 10361 ft | 289 kts | 224° |
| 2026-05-05 12:50 | 22.18218 | 114.69562 | 10030 ft | 269 kts | 224° |
| 2026-05-05 12:51 | 22.16857 | 114.68181 | 10073 ft | 274 kts | 224° |
| 2026-05-05 12:51 | 22.15453 | 114.66749 | 9946 ft | 277 kts | 224° |
| 2026-05-05 12:51 | 22.14068 | 114.65334 | 9803 ft | 272 kts | 224° |
| 2026-05-05 12:51 | 22.12713 | 114.63946 | 9653 ft | 266 kts | 224° |
| 2026-05-05 12:52 | 22.11381 | 114.62582 | 9532 ft | 262 kts | 224° |
| 2026-05-05 12:52 | 22.10050 | 114.61217 | 9403 ft | 264 kts | 224° |
| 2026-05-05 12:52 | 22.08736 | 114.59870 | 9299 ft | 264 kts | 225° |
| 2026-05-05 12:52 | 22.07406 | 114.58504 | 9160 ft | 265 kts | 225° |
| 2026-05-05 12:53 | 22.06069 | 114.57133 | 9033 ft | 266 kts | 225° |
| 2026-05-05 12:53 | 22.04727 | 114.55760 | 8917 ft | 266 kts | 225° |
| 2026-05-05 12:53 | 22.03379 | 114.54378 | 8799 ft | 266 kts | 225° |
| 2026-05-05 12:53 | 22.02159 | 114.52938 | 8622 ft | 261 kts | 240° |
| 2026-05-05 12:54 | 22.00736 | 114.49302 | 8421 ft | 265 kts | 248° |
| 2026-05-05 12:54 | 22.00044 | 114.47470 | 8278 ft | 264 kts | 248° |
| 2026-05-05 12:54 | 21.99353 | 114.45648 | 8158 ft | 260 kts | 247° |
| 2026-05-05 12:55 | 21.98672 | 114.43855 | 8030 ft | 256 kts | 247° |
| 2026-05-05 12:55 | 21.97999 | 114.42091 | 7894 ft | 255 kts | 247° |
| 2026-05-05 12:55 | 21.97532 | 114.40253 | 7663 ft | 260 kts | 270° |
| 2026-05-05 12:55 | 21.97874 | 114.38334 | 7547 ft | 263 kts | 282° |
| 2026-05-05 12:56 | 21.98332 | 114.36398 | 7388 ft | 268 kts | 282° |
| 2026-05-05 12:56 | 21.98775 | 114.34443 | 7250 ft | 269 kts | 282° |
| 2026-05-05 12:56 | 21.99205 | 114.32508 | 7116 ft | 268 kts | 281° |
| 2026-05-05 12:56 | 21.99631 | 114.30562 | 6963 ft | 265 kts | 281° |
| 2026-05-05 12:57 | 22.00047 | 114.28644 | 6829 ft | 260 kts | 281° |
| 2026-05-05 12:57 | 22.00450 | 114.26761 | 6692 ft | 257 kts | 281° |
| 2026-05-05 12:57 | 22.00845 | 114.24905 | 6565 ft | 256 kts | 281° |
| 2026-05-05 12:57 | 22.01245 | 114.23019 | 6454 ft | 258 kts | 280° |
| 2026-05-05 12:58 | 22.01509 | 114.21764 | 6354 ft | 259 kts | 280° |
| 2026-05-05 12:58 | 22.02039 | 114.19239 | 6168 ft | 260 kts | 280° |
| 2026-05-05 12:58 | 22.02304 | 114.17979 | 6079 ft | 260 kts | 281° |
| 2026-05-05 12:58 | 22.02839 | 114.15433 | 5911 ft | 261 kts | 280° |
| 2026-05-05 12:59 | 22.03104 | 114.14162 | 5820 ft | 262 kts | 281° |
| 2026-05-05 12:59 | 22.03506 | 114.12238 | 5694 ft | 263 kts | 281° |
| 2026-05-05 12:59 | 22.03909 | 114.10313 | 5565 ft | 265 kts | 281° |
| 2026-05-05 13:00 | 22.04720 | 114.06434 | 5276 ft | 263 kts | 280° |
| 2026-05-05 13:00 | 22.05120 | 114.04513 | 5143 ft | 261 kts | 281° |
| 2026-05-05 13:01 | 22.06298 | 113.98860 | 4754 ft | 255 kts | 280° |
| 2026-05-05 13:01 | 22.06686 | 113.96994 | 4616 ft | 256 kts | 281° |
| 2026-05-05 13:01 | 22.07078 | 113.95105 | 4501 ft | 260 kts | 280° |
| 2026-05-05 13:01 | 22.07477 | 113.93186 | 4371 ft | 263 kts | 281° |
| 2026-05-05 13:02 | 22.07876 | 113.91261 | 4226 ft | 263 kts | 280° |
| 2026-05-05 13:02 | 22.08275 | 113.89340 | 4095 ft | 263 kts | 281° |
| 2026-05-05 13:02 | 22.08675 | 113.87410 | 3952 ft | 263 kts | 281° |
| 2026-05-05 13:02 | 22.09075 | 113.85484 | 3823 ft | 263 kts | 280° |
| 2026-05-05 13:03 | 22.09474 | 113.83556 | 3705 ft | 263 kts | 280° |
| 2026-05-05 13:03 | 22.09870 | 113.81643 | 3559 ft | 263 kts | 280° |
| 2026-05-05 13:03 | 22.10269 | 113.79710 | 3428 ft | 263 kts | 280° |
| 2026-05-05 13:03 | 22.10938 | 113.77911 | 3261 ft | 261 kts | 307° |
| 2026-05-05 13:04 | 22.12374 | 113.76713 | 3184 ft | 261 kts | 335° |
| 2026-05-05 13:04 | 22.13998 | 113.75924 | 3038 ft | 253 kts | 335° |
| 2026-05-05 13:04 | 22.15538 | 113.75157 | 2888 ft | 233 kts | 336° |
| 2026-05-05 13:04 | 22.16928 | 113.74465 | 2791 ft | 214 kts | 336° |
| 2026-05-05 13:05 | 22.18238 | 113.73812 | 2674 ft | 200 kts | 337° |
| 2026-05-05 13:05 | 22.19512 | 113.73177 | 2588 ft | 203 kts | 337° |
| 2026-05-05 13:05 | 22.20780 | 113.72545 | 2475 ft | 202 kts | 337° |
| 2026-05-05 13:05 | 22.22048 | 113.71914 | 2370 ft | 198 kts | 338° |
| 2026-05-05 13:06 | 22.23343 | 113.71632 | 2235 ft | 188 kts | 15° |
| 2026-05-05 13:06 | 22.24471 | 113.72259 | 2201 ft | 183 kts | 40° |
| 2026-05-05 13:06 | 22.25476 | 113.73159 | 2109 ft | 190 kts | 42° |
| 2026-05-05 13:06 | 22.26477 | 113.74085 | 2001 ft | 188 kts | 43° |
| 2026-05-05 13:07 | 22.27456 | 113.75005 | 1896 ft | 184 kts | 48° |
| 2026-05-05 13:07 | 22.28095 | 113.76146 | 1822 ft | 176 kts | 68° |
| 2026-05-05 13:07 | 22.28596 | 113.77340 | 1761 ft | 176 kts | 69° |
| 2026-05-05 13:07 | 22.29042 | 113.78578 | 1661 ft | 177 kts | 72° |
| 2026-05-05 13:08 | 22.29446 | 113.79816 | 1580 ft | 171 kts | 72° |
| 2026-05-05 13:08 | 22.29828 | 113.80996 | 1381 ft | 163 kts | 72° |
| 2026-05-05 13:08 | 22.30193 | 113.82126 | 1183 ft | 157 kts | 73° |
| 2026-05-05 13:08 | 22.30550 | 113.83236 | 989 ft | 158 kts | 72° |
| 2026-05-05 13:09 | 22.30908 | 113.84343 | 796 ft | 152 kts | 71° |
| 2026-05-05 13:09 | 22.31247 | 113.85393 | 620 ft | 144 kts | 71° |
| 2026-05-05 13:09 | 22.31566 | 113.86381 | 457 ft | 138 kts | 71° |
| 2026-05-05 13:09 | 22.31885 | 113.87367 | 249 ft | 138 kts | 72° |
| 2026-05-05 13:10 | 22.32194 | 113.88330 | 84 ft | 138 kts | 72° |
| 2026-05-05 13:10 | 22.32482 | 113.89220 | 41 ft | 118 kts | 69° |
| 2026-05-05 13:10 | 22.32698 | 113.89889 | 43 ft | 74 kts | 71° |
| 2026-05-05 13:10 | 22.32817 | 113.90280 | 41 ft | 39 kts | 79° |
| 2026-05-05 13:11 | 22.32821 | 113.90455 | 41 ft | 18 kts | 97° |
| 2026-05-05 13:11 | 22.32808 | 113.90528 | 41 ft | 6 kts | 103° |
| 2026-05-05 13:11 | 22.32798 | 113.90575 | 41 ft | 8 kts | 102° |
| 2026-05-05 13:11 | 22.32783 | 113.90685 | 42 ft | 22 kts | 87° |
| 2026-05-05 13:12 | 22.32828 | 113.90858 | 42 ft | 22 kts | 70° |
| 2026-05-05 13:12 | 22.32879 | 113.91012 | 43 ft | 22 kts | 71° |
| 2026-05-05 13:12 | 22.32929 | 113.91168 | 43 ft | 22 kts | 70° |
| 2026-05-05 13:12 | 22.32979 | 113.91323 | 43 ft | 22 kts | 71° |
| 2026-05-05 13:13 | 22.33028 | 113.91474 | 43 ft | 22 kts | 70° |
| 2026-05-05 13:13 | 22.33078 | 113.91629 | 42 ft | 22 kts | 71° |
| 2026-05-05 13:13 | 22.33128 | 113.91784 | 42 ft | 22 kts | 71° |
| 2026-05-05 13:13 | 22.33178 | 113.91938 | 42 ft | 22 kts | 70° |
| 2026-05-05 13:14 | 22.33213 | 113.92054 | 42 ft | 14 kts | 82° |
| 2026-05-05 13:14 | 22.33154 | 113.92125 | 42 ft | 14 kts | 159° |
| 2026-05-05 13:14 | 22.33059 | 113.92161 | 42 ft | 17 kts | 161° |
| 2026-05-05 13:14 | 22.32924 | 113.92211 | 42 ft | 24 kts | 161° |
| 2026-05-05 13:15 | 22.32748 | 113.92277 | 42 ft | 27 kts | 160° |
| 2026-05-05 13:15 | 22.32595 | 113.92335 | 42 ft | 23 kts | 161° |
| 2026-05-05 13:15 | 22.32442 | 113.92392 | 42 ft | 23 kts | 161° |
| 2026-05-05 13:15 | 22.32312 | 113.92442 | 42 ft | 13 kts | 161° |
| 2026-05-05 13:16 | 22.32254 | 113.92475 | 42 ft | 5 kts | 124° |
| 2026-05-05 13:16 | 22.32248 | 113.92510 | 42 ft | 5 kts | 84° |
| 2026-05-05 13:16 | 22.32255 | 113.92541 | 42 ft | 1 kts | 74° |
| 2026-05-05 13:16 | 22.32256 | 113.92544 | 42 ft | 1 kts | 74° |
| 2026-05-05 13:17 | 22.32257 | 113.92548 | 42 ft | 0 kts | 73° |
| 2026-05-05 13:17 | 22.32258 | 113.92551 | 42 ft | 0 kts | 73° |
| 2026-05-05 13:17 | 22.32258 | 113.92552 | 42 ft | 0 kts | 73° |
| 2026-05-05 13:17 | 22.32259 | 113.92554 | 42 ft | 0 kts | 73° |
| 2026-05-05 13:18 | 22.32259 | 113.92556 | 42 ft | 1 kts | 73° |
| 2026-05-05 13:18 | 22.32261 | 113.92564 | 42 ft | 2 kts | 73° |
| 2026-05-05 13:18 | 22.32263 | 113.92569 | 42 ft | 1 kts | 73° |
| 2026-05-05 13:19 | 22.32267 | 113.92584 | 42 ft | 3 kts | 72° |
| 2026-05-05 13:19 | 22.32273 | 113.92602 | 42 ft | 2 kts | 72° |
| 2026-05-05 13:19 | 22.32277 | 113.92620 | 42 ft | 3 kts | 82° |
| 2026-05-05 13:19 | 22.32265 | 113.92644 | 42 ft | 4 kts | 140° |
| 2026-05-05 13:20 | 22.32238 | 113.92663 | 42 ft | 5 kts | 150° |
| 2026-05-05 13:20 | 22.32215 | 113.92672 | 42 ft | 5 kts | 160° |
| 2026-05-05 13:20 | 22.32144 | 113.92700 | 41 ft | 11 kts | 160° |
| 2026-05-05 13:20 | 22.32071 | 113.92728 | 40 ft | 11 kts | 161° |
| 2026-05-05 13:21 | 22.31996 | 113.92756 | 40 ft | 11 kts | 160° |
| 2026-05-05 13:21 | 22.31929 | 113.92780 | 41 ft | 10 kts | 163° |
| 2026-05-05 13:21 | 22.31868 | 113.92806 | 42 ft | 9 kts | 158° |
| 2026-05-05 13:21 | 22.31806 | 113.92806 | 42 ft | 10 kts | 210° |
| 2026-05-05 13:22 | 22.31769 | 113.92744 | 42 ft | 10 kts | 249° |
| 2026-05-05 13:22 | 22.31729 | 113.92622 | 42 ft | 24 kts | 251° |
| 2026-05-05 13:22 | 22.31702 | 113.92537 | 42 ft | 2 kts | 252° |
| 2026-05-05 13:22 | 22.31697 | 113.92521 | 42 ft | 6 kts | 249° |
| 2026-05-05 13:23 | 22.31656 | 113.92397 | 42 ft | 22 kts | 251° |
| 2026-05-05 13:23 | 22.31607 | 113.92244 | 41 ft | 21 kts | 251° |
| 2026-05-05 13:23 | 22.31566 | 113.92116 | 41 ft | 13 kts | 250° |
| 2026-05-05 13:23 | 22.31492 | 113.92071 | 42 ft | 15 kts | 171° |
| 2026-05-05 13:24 | 22.31393 | 113.92105 | 42 ft | 15 kts | 161° |
| 2026-05-05 13:24 | 22.31292 | 113.92142 | 42 ft | 16 kts | 161° |
| 2026-05-05 13:24 | 22.31186 | 113.92183 | 40 ft | 16 kts | 160° |
| 2026-05-05 13:24 | 22.31079 | 113.92223 | 42 ft | 17 kts | 161° |
| 2026-05-05 13:25 | 22.30947 | 113.92272 | 42 ft | 22 kts | 161° |
| 2026-05-05 13:25 | 22.30815 | 113.92321 | 42 ft | 17 kts | 162° |
| 2026-05-05 13:25 | 22.30749 | 113.92368 | 42 ft | 11 kts | 114° |
| 2026-05-05 13:25 | 22.30759 | 113.92458 | 42 ft | 18 kts | 72° |
| 2026-05-05 13:26 | 22.30810 | 113.92618 | 42 ft | 23 kts | 71° |
| 2026-05-05 13:26 | 22.30893 | 113.92743 | 42 ft | 21 kts | 26° |
| 2026-05-05 13:26 | 22.31023 | 113.92811 | 42 ft | 21 kts | 26° |
| 2026-05-05 13:26 | 22.31147 | 113.92877 | 42 ft | 15 kts | 29° |
| 2026-05-05 13:27 | 22.31186 | 113.92927 | 41 ft | 8 kts | 65° |
| 2026-05-05 13:27 | 22.31209 | 113.92979 | 42 ft | 7 kts | 47° |
| 2026-05-05 13:27 | 22.31254 | 113.92986 | 42 ft | 7 kts | 350° |
| 2026-05-05 13:27 | 22.31289 | 113.92974 | 42 ft | 4 kts | 341° |
| 2026-05-05 13:28 | 22.31301 | 113.92969 | 42 ft | 0 kts | 341° |